createdAt,value
2019-01-09T00:01:26.444Z,6.60
2019-01-09T00:03:54.116Z,6.60
2019-01-09T00:06:21.961Z,6.60
2019-01-09T00:08:49.786Z,6.70
2019-01-09T00:11:17.522Z,6.60
2019-01-09T00:13:45.584Z,6.60
2019-01-09T00:16:13.332Z,6.60
2019-01-09T00:18:40.915Z,6.60
2019-01-09T00:21:09.181Z,6.60
2019-01-09T00:23:37.802Z,6.50
2019-01-09T00:26:16.450Z,6.50
2019-01-09T00:28:44.810Z,6.50
2019-01-09T00:31:13.651Z,6.50
2019-01-09T00:33:41.419Z,6.40
2019-01-09T00:36:08.897Z,6.50
2019-01-09T00:38:36.465Z,6.40
2019-01-09T00:41:04.026Z,6.40
2019-01-09T00:43:32.357Z,6.40
2019-01-09T00:45:59.876Z,6.40
2019-01-09T00:48:27.597Z,6.40
2019-01-09T00:51:13.996Z,6.40
2019-01-09T00:53:41.635Z,6.40
2019-01-09T00:56:09.303Z,6.40
2019-01-09T00:58:37.061Z,6.40
2019-01-09T01:01:04.548Z,6.50
2019-01-09T01:04:34.238Z,6.50
2019-01-09T01:08:08.219Z,6.50
2019-01-09T01:11:06.962Z,6.50
2019-01-09T01:14:12.167Z,6.40
2019-01-09T01:17:24.954Z,6.50
2019-01-09T01:20:32.394Z,6.50
2019-01-09T01:23:46.778Z,6.50
2019-01-09T01:26:56.485Z,6.50
2019-01-09T01:29:57.956Z,6.50
2019-01-09T01:32:48.348Z,6.50
2019-01-09T01:35:54.839Z,6.50
2019-01-09T01:39:19.587Z,6.50
2019-01-09T01:42:29.088Z,6.50
2019-01-09T01:45:47.174Z,6.50
2019-01-09T01:48:43.595Z,6.50
2019-01-09T01:52:03.896Z,6.50
2019-01-09T01:55:34.725Z,6.40
2019-01-09T01:58:40.572Z,6.40
2019-01-09T02:01:53.282Z,6.30
2019-01-09T02:05:00.911Z,6.30
2019-01-09T02:08:15.510Z,6.20
2019-01-09T02:11:23.382Z,6.30
2019-01-09T02:14:10.667Z,6.20
2019-01-09T02:17:34.782Z,6.10
2019-01-09T02:20:49.922Z,6.10
2019-01-09T02:24:08.342Z,6.10
2019-01-09T02:26:58.608Z,6.10
2019-01-09T02:29:50.611Z,6.10
2019-01-09T02:32:32.115Z,6.10
2019-01-09T02:34:59.866Z,6.10
2019-01-09T02:37:28.680Z,6.00
2019-01-09T02:39:56.390Z,6.10
2019-01-09T02:42:24.073Z,6.00
2019-01-09T02:44:51.571Z,6.00
2019-01-09T02:47:19.580Z,6.00
2019-01-09T02:49:47.178Z,6.00
2019-01-09T02:52:14.752Z,6.00
2019-01-09T02:54:42.280Z,6.00
2019-01-09T02:57:10.079Z,6.00
2019-01-09T02:59:37.647Z,6.00
2019-01-09T03:02:05.296Z,6.00
2019-01-09T03:04:33.214Z,6.00
2019-01-09T03:07:01.403Z,5.90
2019-01-09T03:09:29.871Z,6.00
2019-01-09T03:11:57.982Z,5.90
2019-01-09T03:14:25.354Z,5.90
2019-01-09T03:16:53.169Z,5.90
2019-01-09T03:19:20.650Z,5.90
2019-01-09T03:21:48.322Z,5.90
2019-01-09T03:24:16.680Z,6.00
2019-01-09T03:26:44.683Z,6.00
2019-01-09T03:29:12.517Z,6.00
2019-01-09T03:31:39.917Z,6.00
2019-01-09T03:34:07.954Z,6.00
2019-01-09T03:36:35.843Z,6.00
2019-01-09T03:39:05.055Z,6.00
2019-01-09T03:41:33.067Z,6.10
2019-01-09T03:44:00.475Z,6.00
2019-01-09T03:46:28.084Z,5.90
2019-01-09T03:48:55.765Z,6.00
2019-01-09T03:51:23.203Z,6.00
2019-01-09T03:53:51.181Z,5.90
2019-01-09T03:56:18.993Z,5.90
2019-01-09T03:58:46.613Z,5.90
2019-01-09T04:01:14.130Z,5.90
2019-01-09T04:03:41.621Z,5.90
2019-01-09T04:06:09.464Z,5.90
2019-01-09T04:08:36.829Z,5.90
2019-01-09T04:11:04.177Z,5.90
2019-01-09T04:13:31.593Z,5.90
2019-01-09T04:15:59.045Z,5.90
2019-01-09T04:18:26.736Z,5.90
2019-01-09T04:20:54.509Z,5.80
2019-01-09T04:23:22.267Z,5.80
2019-01-09T04:25:49.911Z,5.80
2019-01-09T04:28:17.370Z,5.90
2019-01-09T04:30:45.023Z,5.80
2019-01-09T04:33:12.916Z,5.80
2019-01-09T04:35:40.679Z,5.90
2019-01-09T04:38:08.152Z,5.80
2019-01-09T04:40:35.797Z,6.00
2019-01-09T04:43:03.595Z,5.80
2019-01-09T04:45:31.393Z,5.70
2019-01-09T04:47:58.787Z,5.70
2019-01-09T04:50:26.071Z,5.70
2019-01-09T04:52:53.679Z,5.80
2019-01-09T04:55:21.250Z,5.80
2019-01-09T04:57:49.197Z,5.80
2019-01-09T05:00:16.740Z,5.70
2019-01-09T05:02:44.486Z,5.70
2019-01-09T05:05:12.407Z,5.70
2019-01-09T05:07:40.198Z,5.70
2019-01-09T05:10:08.066Z,5.70
2019-01-09T05:12:36.532Z,5.80
2019-01-09T05:15:04.063Z,5.80
2019-01-09T05:17:32.136Z,5.80
2019-01-09T05:19:59.810Z,5.70
2019-01-09T05:22:27.671Z,5.70
2019-01-09T05:24:55.971Z,5.70
2019-01-09T05:27:23.379Z,5.70
2019-01-09T05:29:51.024Z,5.70
2019-01-09T05:32:18.529Z,5.60
2019-01-09T05:34:46.795Z,5.60
2019-01-09T05:37:14.200Z,5.60
2019-01-09T05:39:41.804Z,5.70
2019-01-09T05:42:09.952Z,5.60
2019-01-09T05:44:37.312Z,5.70
2019-01-09T05:47:04.720Z,5.30
2019-01-09T05:49:32.105Z,5.70
2019-01-09T05:51:59.540Z,5.70
2019-01-09T05:54:27.492Z,5.70
2019-01-09T05:56:55.371Z,5.60
2019-01-09T05:59:22.747Z,5.70
2019-01-09T06:01:50.355Z,5.70
2019-01-09T06:04:17.939Z,5.70
2019-01-09T06:06:45.635Z,5.70
2019-01-09T06:09:13.024Z,5.60
2019-01-09T06:11:40.365Z,5.60
2019-01-09T06:14:07.663Z,5.60
2019-01-09T06:16:35.019Z,5.50
2019-01-09T06:19:02.372Z,5.50
2019-01-09T06:21:29.721Z,5.60
2019-01-09T06:23:57.207Z,5.30
2019-01-09T06:26:25.312Z,5.50
2019-01-09T06:28:53.541Z,5.50
2019-01-09T06:31:21.619Z,5.60
2019-01-09T06:33:49.177Z,5.60
2019-01-09T06:36:16.941Z,5.70
2019-01-09T06:38:44.650Z,5.60
2019-01-09T06:41:12.255Z,5.70
2019-01-09T06:43:39.753Z,5.60
2019-01-09T06:46:07.222Z,5.70
2019-01-09T06:48:34.875Z,5.70
2019-01-09T06:51:02.839Z,5.70
2019-01-09T06:53:30.368Z,5.70
2019-01-09T06:56:00.972Z,5.70
2019-01-09T06:58:28.554Z,5.70
2019-01-09T07:00:56.960Z,5.70
2019-01-09T07:03:24.589Z,5.70
2019-01-09T07:05:52.577Z,5.70
2019-01-09T07:08:21.992Z,5.70
2019-01-09T07:10:49.538Z,5.70
2019-01-09T07:13:17.379Z,5.60
2019-01-09T07:15:46.184Z,5.60
2019-01-09T07:18:15.891Z,5.50
2019-01-09T07:20:45.973Z,5.50
2019-01-09T07:23:14.454Z,5.50
2019-01-09T07:25:45.295Z,5.50
2019-01-09T07:28:13.049Z,5.50
2019-01-09T07:30:40.851Z,5.50
2019-01-09T07:33:09.440Z,5.50
2019-01-09T07:35:38.275Z,5.50
2019-01-09T07:38:05.858Z,5.50
2019-01-09T07:40:33.719Z,5.50
2019-01-09T07:43:02.228Z,5.50
2019-01-09T07:45:31.434Z,5.50
2019-01-09T07:47:59.821Z,5.50
2019-01-09T07:50:29.599Z,5.60
2019-01-09T07:52:59.151Z,5.60
2019-01-09T07:55:27.527Z,5.60
2019-01-09T07:57:57.237Z,5.60
2019-01-09T08:00:25.711Z,5.70
2019-01-09T08:02:53.588Z,5.70
2019-01-09T08:05:21.633Z,5.70
2019-01-09T08:07:53.875Z,5.70
2019-01-09T08:10:18.980Z,5.70
2019-01-09T08:12:46.593Z,5.70
2019-01-09T08:15:14.745Z,5.70
2019-01-09T08:17:42.200Z,5.70
2019-01-09T08:20:10.063Z,5.70
2019-01-09T08:22:37.587Z,5.70
2019-01-09T08:25:05.287Z,5.70
2019-01-09T08:27:32.835Z,5.70
2019-01-09T08:30:01.016Z,5.70
2019-01-09T08:32:29.955Z,5.70
2019-01-09T08:34:58.706Z,5.70
2019-01-09T08:37:26.079Z,5.70
2019-01-09T08:39:54.983Z,5.70
2019-01-09T08:42:22.579Z,5.70
2019-01-09T08:44:50.875Z,5.70
2019-01-09T08:47:19.435Z,5.70
2019-01-09T08:49:47.420Z,5.70
2019-01-09T08:52:14.916Z,5.80
2019-01-09T08:54:42.687Z,5.80
2019-01-09T08:57:12.069Z,5.80
2019-01-09T08:59:39.996Z,5.70
2019-01-09T09:02:07.637Z,5.70
2019-01-09T09:04:36.072Z,5.80
2019-01-09T09:07:03.523Z,5.70
2019-01-09T09:09:31.164Z,5.80
2019-01-09T09:12:00.030Z,5.80
2019-01-09T09:14:27.709Z,5.80
2019-01-09T09:16:55.768Z,5.80
2019-01-09T09:19:23.473Z,5.80
2019-01-09T09:21:51.617Z,5.80
2019-01-09T09:24:19.228Z,5.90
2019-01-09T09:26:47.175Z,5.90
2019-01-09T09:29:15.850Z,5.90
2019-01-09T09:31:43.830Z,5.80
2019-01-09T09:34:11.798Z,5.90
2019-01-09T09:36:39.311Z,5.90
2019-01-09T09:39:09.216Z,5.90
2019-01-09T09:41:37.739Z,5.90
2019-01-09T09:44:05.341Z,5.90
2019-01-09T09:46:33.274Z,6.00
2019-01-09T09:49:01.133Z,6.00
2019-01-09T09:51:28.472Z,6.00
2019-01-09T09:53:56.191Z,6.00
2019-01-09T09:56:23.786Z,6.00
2019-01-09T09:58:52.565Z,6.10
2019-01-09T10:01:29.428Z,6.10
2019-01-09T10:03:57.339Z,6.10
2019-01-09T10:06:25.009Z,6.20
2019-01-09T10:08:53.721Z,6.10
2019-01-09T10:11:21.518Z,6.10
2019-01-09T10:13:49.611Z,6.10
2019-01-09T10:16:17.696Z,6.20
2019-01-09T10:18:45.408Z,6.20
2019-01-09T10:21:13.002Z,6.20
2019-01-09T10:23:40.406Z,6.30
2019-01-09T10:26:11.120Z,6.30
2019-01-09T10:28:38.982Z,6.30
2019-01-09T10:31:06.425Z,6.30
2019-01-09T10:33:33.902Z,6.40
2019-01-09T10:36:03.764Z,6.30
2019-01-09T10:38:37.970Z,6.30
2019-01-09T10:41:01.565Z,6.30
2019-01-09T10:43:29.274Z,6.30
2019-01-09T10:45:57.165Z,6.30
2019-01-09T10:48:24.891Z,6.30
2019-01-09T10:50:53.921Z,6.30
2019-01-09T10:53:22.545Z,6.20
2019-01-09T10:55:50.126Z,6.30
2019-01-09T10:58:17.879Z,6.30
2019-01-09T11:00:45.532Z,6.30
2019-01-09T11:03:16.083Z,6.30
2019-01-09T11:05:44.283Z,6.40
2019-01-09T11:08:12.040Z,6.40
2019-01-09T11:10:39.764Z,6.40
2019-01-09T11:13:07.148Z,6.50
2019-01-09T11:15:34.748Z,6.50
2019-01-09T11:18:02.480Z,6.50
2019-01-09T11:20:31.135Z,6.50
2019-01-09T11:22:58.545Z,6.60
2019-01-09T11:25:27.817Z,6.60
2019-01-09T11:27:55.394Z,6.60
2019-01-09T11:30:25.934Z,6.70
2019-01-09T11:32:53.749Z,6.70
2019-01-09T11:35:23.239Z,6.70
2019-01-09T11:37:52.921Z,6.80
2019-01-09T11:40:20.159Z,6.80
2019-01-09T11:42:47.625Z,6.80
2019-01-09T11:45:16.022Z,6.80
2019-01-09T11:47:43.832Z,6.80
2019-01-09T11:50:12.089Z,6.80
2019-01-09T11:52:39.474Z,6.80
2019-01-09T11:55:17.006Z,6.90
2019-01-09T11:57:45.049Z,6.90
2019-01-09T12:00:16.734Z,6.90
2019-01-09T12:02:44.356Z,6.90
2019-01-09T12:05:12.414Z,6.90
2019-01-09T12:07:40.463Z,6.90
2019-01-09T12:10:09.751Z,7.00
2019-01-09T12:12:37.594Z,7.00
2019-01-09T12:15:07.538Z,7.00
2019-01-09T12:17:35.919Z,7.00
2019-01-09T12:20:04.862Z,7.00
2019-01-09T12:22:33.187Z,7.00
2019-01-09T12:25:00.651Z,7.00
2019-01-09T12:27:28.395Z,7.00
2019-01-09T12:29:55.729Z,7.00
2019-01-09T12:32:23.287Z,7.00
2019-01-09T12:34:50.816Z,7.10
2019-01-09T12:37:18.754Z,7.10
2019-01-09T12:39:46.171Z,7.00
2019-01-09T12:42:13.843Z,7.00
2019-01-09T12:44:41.401Z,7.00
2019-01-09T12:47:08.993Z,7.00
2019-01-09T12:49:36.455Z,7.10
2019-01-09T12:52:03.993Z,7.10
2019-01-09T12:54:31.669Z,7.10
2019-01-09T12:56:59.423Z,7.10
2019-01-09T12:59:26.902Z,7.10
2019-01-09T13:01:55.390Z,7.10
2019-01-09T13:04:22.972Z,7.10
2019-01-09T13:06:50.858Z,7.10
2019-01-09T13:09:22.337Z,7.10
2019-01-09T13:11:47.974Z,7.10
2019-01-09T13:14:15.677Z,7.10
2019-01-09T13:16:47.634Z,7.10
2019-01-09T13:19:13.515Z,7.10
2019-01-09T13:21:41.079Z,7.00
2019-01-09T13:24:08.663Z,7.10
2019-01-09T13:26:36.186Z,7.10
2019-01-09T13:29:04.445Z,7.10
2019-01-09T13:31:32.673Z,7.10
2019-01-09T13:34:00.147Z,7.20
2019-01-09T13:36:27.943Z,7.20
2019-01-09T13:38:55.855Z,7.20
2019-01-09T13:41:23.203Z,7.30
2019-01-09T13:43:50.539Z,7.30
2019-01-09T13:46:18.236Z,7.30
2019-01-09T13:48:46.166Z,7.30
2019-01-09T13:51:13.743Z,7.30
2019-01-09T13:53:41.390Z,7.40
2019-01-09T13:56:08.958Z,7.40
2019-01-09T13:58:36.694Z,7.40
2019-01-09T14:01:04.192Z,7.40
2019-01-09T14:03:31.664Z,7.30
2019-01-09T14:06:00.114Z,7.30
2019-01-09T14:08:27.836Z,7.30
2019-01-09T14:10:55.450Z,7.40
2019-01-09T14:13:22.965Z,7.40
2019-01-09T14:15:50.572Z,7.40
2019-01-09T14:18:18.305Z,7.40
2019-01-09T14:20:46.085Z,7.50
2019-01-09T14:23:13.811Z,7.50
2019-01-09T14:25:41.290Z,7.60
2019-01-09T14:28:08.691Z,7.50
2019-01-09T14:30:36.325Z,7.50
2019-01-09T14:33:04.064Z,7.50
2019-01-09T14:35:31.416Z,7.50
2019-01-09T14:37:59.635Z,7.50
2019-01-09T14:40:27.582Z,7.60
2019-01-09T14:42:55.203Z,7.60
2019-01-09T14:45:23.112Z,7.90
2019-01-09T14:47:51.503Z,7.60
2019-01-09T14:50:21.348Z,7.60
2019-01-09T14:52:48.743Z,7.60
2019-01-09T14:55:16.670Z,7.60
2019-01-09T14:57:44.910Z,7.60
2019-01-09T15:00:15.298Z,7.60
2019-01-09T15:02:42.783Z,7.60
2019-01-09T15:05:10.804Z,7.70
2019-01-09T15:07:38.645Z,7.70
2019-01-09T15:10:08.763Z,7.70
2019-01-09T15:12:36.421Z,7.70
2019-01-09T15:15:05.509Z,7.70
2019-01-09T15:17:33.675Z,7.70
2019-01-09T15:20:01.265Z,7.70
2019-01-09T15:22:29.161Z,7.70
2019-01-09T15:24:56.934Z,7.70
2019-01-09T15:27:24.639Z,7.70
2019-01-09T15:29:52.786Z,7.60
2019-01-09T15:32:20.170Z,7.60
2019-01-09T15:34:47.540Z,7.60
2019-01-09T15:37:15.162Z,7.60
2019-01-09T15:39:42.629Z,7.50
2019-01-09T15:42:10.002Z,7.50
2019-01-09T15:44:37.818Z,7.50
2019-01-09T15:47:05.656Z,7.40
2019-01-09T15:49:33.710Z,7.40
2019-01-09T15:52:01.107Z,7.30
2019-01-09T15:54:28.500Z,7.30
2019-01-09T15:56:56.062Z,7.30
2019-01-09T15:59:23.721Z,7.20
2019-01-09T16:01:51.586Z,7.20
2019-01-09T16:04:19.204Z,7.50
2019-01-09T16:06:46.772Z,7.20
2019-01-09T16:09:15.635Z,7.20
2019-01-09T16:11:43.049Z,7.20
2019-01-09T16:14:10.654Z,7.20
2019-01-09T16:16:38.194Z,7.10
2019-01-09T16:19:05.962Z,7.10
2019-01-09T16:21:33.832Z,7.10
2019-01-09T16:24:01.260Z,7.20
2019-01-09T16:26:29.372Z,7.10
2019-01-09T16:28:56.779Z,7.10
2019-01-09T16:31:30.596Z,7.10
2019-01-09T16:33:59.196Z,7.10
2019-01-09T16:36:28.205Z,7.00
2019-01-09T16:38:55.677Z,7.00
2019-01-09T16:41:23.111Z,7.00
2019-01-09T16:43:51.421Z,6.90
2019-01-09T16:46:19.245Z,6.90
2019-01-09T16:48:46.993Z,6.90
2019-01-09T16:51:14.541Z,6.90
2019-01-09T16:53:42.218Z,6.90
2019-01-09T16:56:09.629Z,6.90
2019-01-09T16:58:37.461Z,6.90
2019-01-09T17:01:05.354Z,7.00
2019-01-09T17:03:36.939Z,7.00
2019-01-09T17:06:06.568Z,7.00
2019-01-09T17:08:37.627Z,7.00
2019-01-09T17:11:05.293Z,7.00
2019-01-09T17:13:32.873Z,7.00
2019-01-09T17:16:00.303Z,7.00
2019-01-09T17:18:27.909Z,7.00
2019-01-09T17:20:55.508Z,6.90
2019-01-09T17:23:23.166Z,6.90
2019-01-09T17:25:50.626Z,6.80
2019-01-09T17:28:18.412Z,6.80
2019-01-09T17:30:46.160Z,6.80
2019-01-09T17:33:13.608Z,6.80
2019-01-09T17:35:41.153Z,6.80
2019-01-09T17:38:08.523Z,6.80
2019-01-09T17:40:40.912Z,6.90
2019-01-09T17:43:05.731Z,6.90
2019-01-09T17:45:33.196Z,6.80
2019-01-09T17:48:00.774Z,6.80
2019-01-09T17:50:30.390Z,6.80
2019-01-09T17:52:58.068Z,6.80
2019-01-09T17:55:31.578Z,6.80
2019-01-09T17:57:59.409Z,6.80
2019-01-09T18:00:29.870Z,6.90
2019-01-09T18:02:58.744Z,6.90
2019-01-09T18:05:26.477Z,6.90
2019-01-09T18:07:54.371Z,6.90
2019-01-09T18:10:22.043Z,7.00
2019-01-09T18:12:49.631Z,7.00
2019-01-09T18:15:19.541Z,7.00
2019-01-09T18:17:47.331Z,7.00
2019-01-09T18:20:15.996Z,7.10
2019-01-09T18:22:44.035Z,7.10
2019-01-09T18:25:14.099Z,7.10
2019-01-09T18:27:42.187Z,7.10
2019-01-09T18:30:31.510Z,7.10
2019-01-09T18:33:02.786Z,7.10
2019-01-09T18:36:00.524Z,7.10
2019-01-09T18:38:46.519Z,7.00
2019-01-09T18:41:49.056Z,7.00
2019-01-09T18:44:54.822Z,7.00
2019-01-09T18:48:07.955Z,7.00
2019-01-09T18:51:25.707Z,7.00
2019-01-09T18:53:54.064Z,7.00
2019-01-09T18:56:21.662Z,7.00
2019-01-09T18:58:49.944Z,7.00
2019-01-09T19:01:17.616Z,7.00
2019-01-09T19:03:45.436Z,7.00
2019-01-09T19:06:13.528Z,7.00
2019-01-09T19:08:41.271Z,6.90
2019-01-09T19:11:09.010Z,6.90
2019-01-09T19:13:36.500Z,6.90
2019-01-09T19:16:05.896Z,6.90
2019-01-09T19:18:33.344Z,6.90
2019-01-09T19:21:00.994Z,6.90
2019-01-09T19:23:28.404Z,6.90
2019-01-09T19:25:55.757Z,6.90
2019-01-09T19:28:23.522Z,6.90
2019-01-09T19:30:51.234Z,6.90
2019-01-09T19:33:18.828Z,6.90
2019-01-09T19:35:47.119Z,6.90
2019-01-09T19:38:14.984Z,6.90
2019-01-09T19:40:43.165Z,6.90
2019-01-09T19:43:10.611Z,6.90
2019-01-09T19:45:38.536Z,6.90
2019-01-09T19:48:06.067Z,6.90
2019-01-09T19:50:42.483Z,6.90
2019-01-09T19:53:05.677Z,6.90
2019-01-09T19:55:33.320Z,6.90
2019-01-09T19:58:01.271Z,6.90
2019-01-09T20:00:29.194Z,7.00
2019-01-09T20:02:56.792Z,6.90
2019-01-09T20:05:24.232Z,7.00
2019-01-09T20:07:51.799Z,6.90
2019-01-09T20:10:22.046Z,7.00
2019-01-09T20:12:49.708Z,7.00
2019-01-09T20:15:18.419Z,7.00
2019-01-09T20:17:46.769Z,7.00
2019-01-09T20:20:17.102Z,6.90
2019-01-09T20:22:44.328Z,6.90
2019-01-09T20:25:12.441Z,6.90
2019-01-09T20:27:40.044Z,6.90
2019-01-09T20:30:12.033Z,6.90
2019-01-09T20:32:39.647Z,6.90
2019-01-09T20:35:07.434Z,7.00
2019-01-09T20:37:35.055Z,6.90
2019-01-09T20:40:04.260Z,6.60
2019-01-09T20:42:31.713Z,7.00
2019-01-09T20:44:59.403Z,7.00
2019-01-09T20:47:27.361Z,7.00
2019-01-09T20:49:55.012Z,7.00
2019-01-09T20:52:23.670Z,7.00
2019-01-09T20:54:57.553Z,6.90
2019-01-09T20:57:25.406Z,6.90
2019-01-09T20:59:53.009Z,6.90
2019-01-09T21:02:22.189Z,6.90
2019-01-09T21:04:50.155Z,6.90
2019-01-09T21:07:18.246Z,6.80
2019-01-09T21:09:45.925Z,6.80
2019-01-09T21:12:13.758Z,6.80
2019-01-09T21:14:42.215Z,6.80
2019-01-09T21:17:10.637Z,6.90
2019-01-09T21:19:38.602Z,6.80
2019-01-09T21:22:06.139Z,6.80
2019-01-09T21:24:33.931Z,6.70
2019-01-09T21:27:01.672Z,6.70
2019-01-09T21:29:29.109Z,6.70
2019-01-09T21:31:56.778Z,6.60
2019-01-09T21:34:24.267Z,6.60
2019-01-09T21:36:52.508Z,6.60
2019-01-09T21:39:20.969Z,6.50
2019-01-09T21:41:53.368Z,6.50
2019-01-09T21:44:18.423Z,6.50
2019-01-09T21:46:46.694Z,6.50
2019-01-09T21:49:14.503Z,6.50
2019-01-09T21:51:42.083Z,6.50
2019-01-09T21:54:09.768Z,6.50
2019-01-09T21:56:37.593Z,6.50
2019-01-09T21:59:05.457Z,6.50
2019-01-09T22:01:33.273Z,6.40
2019-01-09T22:04:00.862Z,6.40
2019-01-09T22:06:28.790Z,6.30
2019-01-09T22:08:56.466Z,6.30
2019-01-09T22:11:23.991Z,6.30
2019-01-09T22:13:51.508Z,6.30
2019-01-09T22:16:19.017Z,6.30
2019-01-09T22:18:47.467Z,6.30
2019-01-09T22:21:15.128Z,6.30
2019-01-09T22:23:42.766Z,6.30
2019-01-09T22:26:10.572Z,6.30
2019-01-09T22:28:38.080Z,6.30
2019-01-09T22:31:05.536Z,6.40
2019-01-09T22:33:33.104Z,6.40
2019-01-09T22:36:01.034Z,6.40
2019-01-09T22:38:28.791Z,6.40
2019-01-09T22:40:56.348Z,6.40
2019-01-09T22:43:24.384Z,6.40
2019-01-09T22:45:52.605Z,6.40
2019-01-09T22:48:20.803Z,6.50
2019-01-09T22:50:48.678Z,6.50
2019-01-09T22:53:16.298Z,6.50
2019-01-09T22:55:43.739Z,6.50
2019-01-09T22:58:11.782Z,6.50
2019-01-09T23:01:16.241Z,6.50
2019-01-09T23:03:44.562Z,6.50
2019-01-09T23:06:12.984Z,6.50
2019-01-09T23:08:41.481Z,6.50
2019-01-09T23:11:10.031Z,6.40
2019-01-09T23:13:37.498Z,6.40
2019-01-09T23:16:05.131Z,6.40
2019-01-09T23:18:33.093Z,6.40
2019-01-09T23:21:00.894Z,6.40
2019-01-09T23:23:28.786Z,6.40
2019-01-09T23:25:56.369Z,6.40
2019-01-09T23:28:24.067Z,6.40
2019-01-09T23:30:51.494Z,6.40
2019-01-09T23:33:19.074Z,6.50
2019-01-09T23:35:46.548Z,6.50
2019-01-09T23:38:14.023Z,6.40
2019-01-09T23:40:41.377Z,6.50
2019-01-09T23:43:08.718Z,6.40
2019-01-09T23:45:36.669Z,6.50
2019-01-09T23:48:04.592Z,6.40
2019-01-09T23:50:32.319Z,6.50
2019-01-09T23:53:00.390Z,6.40
2019-01-09T23:55:28.087Z,6.40
2019-01-09T23:57:55.893Z,6.50
